Time;durP1;ratioP1;P1;durP2;ratioP2;P2;SDS_P1;SDS_P2;PMS_P1;PMS_P2;Temp;Humidity;BMP_temperature;BMP_pressure;BME280_temperature;BME280_humidity;BME280_pressure;Samples;Min_cycle;Max_cycle;Signal;HPM_P1;HPM_P2
2023/12/31 00:02:17;;;;;;;1.70;1.60;;;16.50;70.90;17.30;99877.00;;;;5071598;28;20241;-51
2023/12/31 00:04:43;;;;;;;1.60;1.50;;;16.50;70.90;17.30;99870.00;;;;5071606;28;20183;-50
2023/12/31 00:07:08;;;;;;;4.47;1.47;;;16.50;70.90;17.30;99860.00;;;;5071700;28;20186;-50
2023/12/31 00:09:34;;;;;;;1.60;1.50;;;16.50;70.90;17.30;99854.00;;;;5071108;28;20646;-50
2023/12/31 00:12:00;;;;;;;1.50;1.40;;;16.50;71.00;17.30;99850.00;;;;5071023;28;20206;-50
2023/12/31 00:14:26;;;;;;;1.80;1.60;;;16.50;71.00;17.30;99844.00;;;;5066091;28;20217;-51
2023/12/31 00:16:52;;;;;;;1.60;1.50;;;16.40;70.80;17.30;99842.00;;;;5066376;28;20204;-50
2023/12/31 00:19:17;;;;;;;1.70;1.50;;;16.40;70.90;17.30;99850.00;;;;5070425;28;20192;-51
2023/12/31 00:21:43;;;;;;;1.60;1.50;;;16.50;70.90;17.30;99836.00;;;;5071548;28;20197;-50
2023/12/31 00:24:09;;;;;;;1.53;1.43;;;16.50;70.90;17.30;99835.00;;;;5065255;28;20434;-51
2023/12/31 00:26:35;;;;;;;1.60;1.50;;;16.40;70.80;17.30;99843.00;;;;5071770;28;20237;-50
2023/12/31 00:29:01;;;;;;;1.53;1.43;;;16.40;70.90;17.30;99826.00;;;;5071440;28;20220;-50
2023/12/31 00:31:27;;;;;;;1.20;1.10;;;16.40;70.80;17.30;99824.00;;;;5071784;28;20624;-51
2023/12/31 00:33:56;;;;;;;1.60;1.50;;;16.40;70.90;17.30;99823.00;;;;5077835;28;20185;-51
2023/12/31 00:36:24;;;;;;;1.30;1.20;;;16.40;70.90;17.30;99802.00;;;;5072995;28;20203;-51
2023/12/31 00:38:50;;;;;;;1.47;1.37;;;16.40;70.80;17.30;99793.00;;;;5071143;28;20171;-51
2023/12/31 00:41:16;;;;;;;1.40;1.30;;;16.40;70.80;17.30;99776.00;;;;5070771;28;20895;-51
2023/12/31 00:43:42;;;;;;;1.60;1.50;;;16.40;70.90;17.30;99771.00;;;;5071138;28;20605;-50
2023/12/31 00:46:07;;;;;;;1.10;1.10;;;16.40;70.80;17.30;99773.00;;;;5070552;28;20699;-50
2023/12/31 00:48:33;;;;;;;1.50;1.40;;;16.40;70.80;17.30;99783.00;;;;5070625;28;20175;-50
2023/12/31 00:51:01;;;;;;;1.20;1.20;;;16.30;70.70;17.30;99778.00;;;;5041174;28;20205;-51
2023/12/31 00:53:27;;;;;;;1.30;1.20;;;16.40;70.80;17.30;99772.00;;;;5084257;28;20177;-50
2023/12/31 00:55:52;;;;;;;1.60;1.50;;;16.30;70.70;17.30;99774.00;;;;5070701;28;20206;-50
2023/12/31 00:58:18;;;;;;;1.53;1.43;;;16.40;70.80;17.30;99771.00;;;;5070528;28;20229;-50
2023/12/31 01:00:44;;;;;;;1.50;1.40;;;16.40;70.80;17.30;99756.00;;;;5070695;28;20172;-50
2023/12/31 01:03:10;;;;;;;1.17;1.17;;;16.40;70.70;17.30;99748.00;;;;5070063;28;20185;-49
2023/12/31 01:05:35;;;;;;;1.60;1.50;;;16.40;70.50;17.30;99743.00;;;;5071867;28;20257;-49
2023/12/31 01:08:01;;;;;;;1.40;1.30;;;16.40;70.50;17.30;99740.00;;;;5082657;28;20181;-50
2023/12/31 01:10:27;;;;;;;1.40;1.30;;;16.40;70.50;17.30;99745.00;;;;5069270;28;20658;-51
2023/12/31 01:12:53;;;;;;;1.70;1.60;;;16.40;70.50;17.30;99757.00;;;;5069614;28;20209;-51
2023/12/31 01:15:18;;;;;;;1.50;1.40;;;16.30;70.40;17.30;99742.00;;;;5069320;28;20727;-51
2023/12/31 01:17:44;;;;;;;1.30;1.20;;;16.30;70.60;17.30;99747.00;;;;5063518;28;20203;-50
2023/12/31 01:20:11;;;;;;;1.27;1.20;;;16.40;70.50;17.30;99739.00;;;;5069023;28;20196;-50
2023/12/31 01:22:36;;;;;;;1.47;1.37;;;16.30;70.40;17.10;99733.00;;;;5065911;28;20340;-50
2023/12/31 01:25:03;;;;;;;1.77;1.67;;;16.30;70.40;17.30;99731.00;;;;5063255;28;20192;-50
2023/12/31 01:27:29;;;;;;;1.50;1.40;;;16.30;70.40;17.30;99729.00;;;;5068994;28;20534;-50
2023/12/31 01:29:54;;;;;;;1.50;1.40;;;16.30;70.40;17.30;99718.00;;;;5069490;28;20179;-50
2023/12/31 01:32:21;;;;;;;1.40;1.30;;;16.30;70.40;17.30;99715.00;;;;5068620;28;20197;-50
2023/12/31 01:34:46;;;;;;;1.60;1.50;;;16.30;71.30;17.30;99729.00;;;;5068951;28;20202;-50
2023/12/31 01:37:12;;;;;;;1.23;1.23;;;16.30;70.40;17.30;99719.00;;;;5062941;28;20304;-50
2023/12/31 01:39:38;;;;;;;1.23;1.23;;;16.30;70.40;17.30;99717.00;;;;5068490;28;20195;-51
2023/12/31 01:42:03;;;;;;;1.83;1.50;;;16.30;70.40;17.30;99712.00;;;;5042003;28;20625;-51
2023/12/31 01:44:29;;;;;;;1.37;1.37;;;16.30;70.40;17.30;99714.00;;;;5039800;28;20552;-51
2023/12/31 01:46:55;;;;;;;1.60;1.50;;;16.30;70.40;17.30;99710.00;;;;5068944;28;20567;-50
2023/12/31 01:49:21;;;;;;;1.60;1.50;;;16.30;70.40;17.20;99695.00;;;;5068473;28;20183;-51
2023/12/31 01:51:47;;;;;;;1.80;1.50;;;16.30;70.40;17.20;99691.00;;;;5046187;28;20692;-51
2023/12/31 01:54:13;;;;;;;1.37;1.27;;;16.30;70.40;17.20;99703.00;;;;5032598;28;20240;-50
2023/12/31 01:56:38;;;;;;;1.50;1.40;;;16.30;70.40;17.20;99681.00;;;;5068518;28;20566;-51
2023/12/31 01:59:04;;;;;;;1.40;1.30;;;16.20;70.30;17.20;99679.00;;;;5068171;28;20213;-51
2023/12/31 02:01:31;;;;;;;1.60;1.50;;;16.30;70.40;17.20;99681.00;;;;5062778;28;20191;-50
2023/12/31 02:03:56;;;;;;;1.50;1.40;;;16.20;70.30;17.20;99677.00;;;;5033867;28;20816;-50
2023/12/31 02:06:22;;;;;;;1.27;1.27;;;16.30;70.40;17.20;99672.00;;;;5022312;28;20207;-51
2023/12/31 02:08:48;;;;;;;1.50;1.40;;;16.20;70.50;17.20;99671.00;;;;5068116;28;20532;-50
2023/12/31 02:11:16;;;;;;;1.50;1.40;;;16.20;70.50;17.20;99663.00;;;;5068269;28;20229;-50
2023/12/31 02:13:41;;;;;;;1.50;1.40;;;16.20;70.60;17.20;99656.00;;;;5038850;28;20257;-50
2023/12/31 02:16:16;;;;;;;1.57;1.47;;;16.20;70.50;17.20;99645.00;;;;5067880;28;20263;-51
2023/12/31 02:18:42;;;;;;;1.50;1.30;;;16.20;70.60;17.20;99648.00;;;;5061446;28;20185;-50
2023/12/31 02:21:08;;;;;;;1.73;1.63;;;16.10;70.60;17.10;99647.00;;;;5070790;28;20196;-50
2023/12/31 02:23:34;;;;;;;1.50;1.40;;;16.10;70.60;17.10;99655.00;;;;5067963;28;20215;-50
2023/12/31 02:26:07;;;;;;;1.43;1.30;;;16.20;70.80;17.10;99628.00;;;;5030337;28;20634;-50
2023/12/31 02:28:33;;;;;;;1.60;1.50;;;16.10;70.90;17.10;99618.00;;;;5073849;28;20230;-50
2023/12/31 02:30:59;;;;;;;1.40;1.30;;;16.10;70.80;17.10;99626.00;;;;5067508;28;20207;-50
2023/12/31 02:33:25;;;;;;;1.80;1.70;;;16.20;70.80;17.10;99628.00;;;;5065564;28;20561;-49
2023/12/31 02:35:50;;;;;;;1.57;1.47;;;16.10;70.90;17.10;99616.00;;;;5065627;28;20189;-51
2023/12/31 02:38:16;;;;;;;1.50;1.40;;;16.10;70.90;17.10;99595.00;;;;5065714;28;20293;-50
2023/12/31 02:40:42;;;;;;;1.23;1.23;;;16.10;70.70;17.10;99608.00;;;;5040767;28;20171;-50
2023/12/31 02:43:07;;;;;;;1.90;1.33;;;16.10;70.70;17.10;99604.00;;;;5065710;28;20605;-51
2023/12/31 02:45:33;;;;;;;1.60;1.50;;;16.10;70.80;17.10;99585.00;;;;5064430;28;20184;-52
2023/12/31 02:47:59;;;;;;;1.50;1.40;;;16.20;70.90;17.10;99573.00;;;;5047386;28;20321;-52
2023/12/31 02:50:25;;;;;;;1.70;1.60;;;16.10;70.80;17.10;99571.00;;;;5066179;28;20605;-51
2023/12/31 02:52:53;;;;;;;1.50;1.40;;;16.10;70.70;17.10;99574.00;;;;5046495;28;20865;-50
2023/12/31 02:55:22;;;;;;;1.60;1.50;;;16.10;70.80;17.00;99556.00;;;;5076744;28;20649;-49
2023/12/31 02:57:47;;;;;;;1.60;1.50;;;16.10;70.90;17.10;99554.00;;;;5077015;28;20238;-51
2023/12/31 03:00:14;;;;;;;1.60;1.50;;;16.10;70.90;17.00;99542.00;;;;5035148;28;20173;-50
2023/12/31 03:02:40;;;;;;;1.60;1.50;;;16.10;71.00;17.00;99543.00;;;;5068422;28;20197;-51
2023/12/31 03:05:10;;;;;;;1.57;1.43;;;16.10;70.90;17.00;99545.00;;;;5062114;28;20183;-50
2023/12/31 03:07:36;;;;;;;1.50;1.40;;;16.10;70.90;17.00;99537.00;;;;5070767;28;20189;-50
2023/12/31 03:10:02;;;;;;;1.93;1.70;;;16.10;70.90;17.00;99532.00;;;;5075958;28;20243;-50
2023/12/31 03:12:28;;;;;;;1.57;1.47;;;16.00;70.70;17.00;99523.00;;;;5067329;28;20237;-51
2023/12/31 03:14:55;;;;;;;1.70;1.60;;;16.00;70.90;17.00;99520.00;;;;5044251;28;20210;-51
2023/12/31 03:17:21;;;;;;;1.70;1.60;;;16.10;70.90;17.00;99508.00;;;;5060927;28;20198;-49
2023/12/31 03:19:48;;;;;;;1.83;1.73;;;16.00;70.70;17.00;99508.00;;;;5066998;28;20719;-51
2023/12/31 03:22:14;;;;;;;1.47;1.47;;;16.00;70.80;17.00;99429.00;;;;5067205;28;20204;-50
2023/12/31 03:24:42;;;;;;;1.80;1.70;;;16.00;71.60;17.00;99493.00;;;;5067692;28;20232;-51
2023/12/31 03:27:09;;;;;;;1.50;1.40;;;16.00;70.80;17.00;99502.00;;;;5067364;28;20174;-51
2023/12/31 03:29:38;;;;;;;1.77;1.67;;;16.00;70.90;17.00;99492.00;;;;5067159;28;20659;-50
2023/12/31 03:32:04;;;;;;;1.70;1.60;;;16.00;70.90;17.00;99498.00;;;;5069561;28;20229;-50
2023/12/31 03:34:30;;;;;;;1.40;1.40;;;16.00;70.80;17.00;99494.00;;;;5071256;28;20193;-50
2023/12/31 03:36:55;;;;;;;1.60;1.50;;;16.00;70.80;16.90;99505.00;;;;5071276;28;20210;-50
2023/12/31 03:39:22;;;;;;;1.40;1.40;;;16.00;70.90;17.00;99502.00;;;;5070680;28;20649;-49
2023/12/31 03:41:48;;;;;;;1.60;1.50;;;16.00;70.90;16.90;99500.00;;;;5070788;28;20208;-51
2023/12/31 03:44:14;;;;;;;1.37;1.37;;;15.90;70.80;16.90;99480.00;;;;5067204;28;20180;-52
2023/12/31 03:46:40;;;;;;;1.50;1.40;;;16.00;70.80;16.90;99487.00;;;;5070550;28;20198;-51
2023/12/31 03:49:05;;;;;;;1.60;1.50;;;16.00;70.90;16.90;99483.00;;;;5070807;28;20178;-50
2023/12/31 03:51:31;;;;;;;1.50;1.40;;;16.00;70.90;16.70;99479.00;;;;5070656;28;20202;-50
2023/12/31 03:53:57;;;;;;;1.50;1.40;;;15.90;70.90;16.90;99468.00;;;;5065293;28;20195;-50
2023/12/31 03:56:23;;;;;;;1.67;1.57;;;15.90;71.00;16.90;99453.00;;;;5070486;28;20181;-50
2023/12/31 03:58:48;;;;;;;1.50;1.40;;;15.90;70.90;16.90;99440.00;;;;5070660;28;20190;-50
2023/12/31 04:01:14;;;;;;;1.60;1.50;;;15.90;70.80;16.90;99432.00;;;;5070983;28;20567;-50
2023/12/31 04:03:40;;;;;;;1.50;1.40;;;15.90;70.90;16.90;99417.00;;;;5071733;28;20182;-50
2023/12/31 04:06:09;;;;;;;1.60;1.50;;;15.90;70.90;16.80;99418.00;;;;5072420;28;20577;-50
2023/12/31 04:08:35;;;;;;;1.60;1.50;;;15.90;70.80;16.80;99417.00;;;;5066806;28;20658;-50
2023/12/31 04:11:00;;;;;;;1.60;1.50;;;15.90;70.90;16.80;99406.00;;;;5071402;28;20212;-50
2023/12/31 04:13:28;;;;;;;1.53;1.43;;;15.90;71.10;16.80;99403.00;;;;5071842;28;20184;-50
2023/12/31 04:15:53;;;;;;;1.60;1.50;;;15.90;71.00;16.80;99396.00;;;;5071326;28;20212;-51
2023/12/31 04:18:19;;;;;;;1.50;1.40;;;15.90;70.90;16.80;99391.00;;;;5059240;28;20229;-51
2023/12/31 04:20:45;;;;;;;1.70;1.60;;;15.90;70.90;16.80;99389.00;;;;5048651;28;20248;-50
2023/12/31 04:23:11;;;;;;;1.50;1.40;;;15.90;70.90;16.80;99383.00;;;;5071216;28;20175;-50
2023/12/31 04:25:37;;;;;;;1.50;1.40;;;15.90;71.00;16.80;99383.00;;;;5071163;28;20598;-50
2023/12/31 04:28:03;;;;;;;1.77;1.67;;;15.90;71.00;16.80;99375.00;;;;5077054;28;20182;-51
2023/12/31 04:30:28;;;;;;;1.60;1.50;;;15.80;72.00;16.80;99384.00;;;;5070694;28;20211;-52
2023/12/31 04:32:54;;;;;;;2.53;1.67;;;15.80;71.30;16.80;99369.00;;;;5071148;28;20255;-49
2023/12/31 04:35:20;;;;;;;1.90;1.60;;;15.80;71.30;16.80;99355.00;;;;5075800;28;21991;-50
2023/12/31 04:37:45;;;;;;;1.73;1.63;;;15.80;71.10;16.80;99347.00;;;;5076484;28;20202;-50
2023/12/31 04:40:11;;;;;;;1.83;1.70;;;15.80;71.10;16.80;99351.00;;;;5069215;28;20719;-49
2023/12/31 04:42:37;;;;;;;2.40;1.50;;;15.80;71.00;16.80;99344.00;;;;5070608;28;20202;-50
2023/12/31 04:45:08;;;;;;;3.43;1.50;;;15.80;71.00;16.80;99326.00;;;;5071272;28;20170;-51
2023/12/31 04:47:37;;;;;;;1.40;1.30;;;15.80;70.90;16.80;99330.00;;;;5065547;28;20173;-50
2023/12/31 04:50:03;;;;;;;2.77;1.60;;;15.80;70.80;16.80;99331.00;;;;5082708;28;20181;-51
2023/12/31 04:52:28;;;;;;;1.80;1.70;;;15.80;70.80;16.70;99329.00;;;;5075029;28;20194;-50
2023/12/31 04:54:54;;;;;;;2.07;1.73;;;15.80;70.80;16.70;99326.00;;;;5068264;28;20559;-50
2023/12/31 04:57:20;;;;;;;4.53;1.80;;;15.80;70.70;16.70;99325.00;;;;5064064;28;20232;-50
2023/12/31 04:59:46;;;;;;;2.33;1.60;;;15.80;70.70;16.80;99333.00;;;;5071018;28;20657;-51
2023/12/31 05:02:12;;;;;;;3.27;1.80;;;15.80;70.70;16.70;99326.00;;;;5071039;28;20208;-50
2023/12/31 05:04:40;;;;;;;2.00;1.80;;;15.70;70.50;16.70;99329.00;;;;5070843;28;20174;-50
2023/12/31 05:07:08;;;;;;;1.70;1.60;;;15.70;70.40;16.70;99318.00;;;;5067768;28;20264;-49
2023/12/31 05:09:33;;;;;;;1.70;1.50;;;15.70;70.40;16.70;99316.00;;;;5070409;28;20256;-50
2023/12/31 05:11:59;;;;;;;1.83;1.50;;;15.70;70.40;16.70;99317.00;;;;5070402;28;20339;-51
2023/12/31 05:14:25;;;;;;;2.20;1.70;;;15.70;70.30;16.70;99309.00;;;;5076395;28;20184;-50
2023/12/31 05:16:50;;;;;;;2.03;1.80;;;15.70;70.30;16.70;99292.00;;;;5065786;28;20198;-50
2023/12/31 05:19:16;;;;;;;1.60;1.50;;;15.70;70.30;16.70;99280.00;;;;5068733;28;20720;-50
2023/12/31 05:21:42;;;;;;;2.03;1.60;;;15.70;70.40;16.70;99298.00;;;;5070178;28;20216;-50
2023/12/31 05:24:07;;;;;;;1.90;1.70;;;15.70;70.30;16.70;99275.00;;;;5070086;28;20182;-50
2023/12/31 05:26:33;;;;;;;1.73;1.60;;;15.70;70.10;16.70;99285.00;;;;5040310;28;20174;-51
2023/12/31 05:28:59;;;;;;;1.70;1.60;;;15.70;70.10;16.70;99279.00;;;;5066913;28;20205;-50
2023/12/31 05:31:25;;;;;;;1.80;1.70;;;15.70;70.10;16.70;99268.00;;;;5047773;28;20333;-50
2023/12/31 05:33:51;;;;;;;2.03;1.60;;;15.70;70.10;16.60;99261.00;;;;5069858;28;20665;-51
2023/12/31 05:36:16;;;;;;;2.53;1.50;;;15.70;70.10;16.60;99255.00;;;;5069729;28;20241;-50
2023/12/31 05:38:42;;;;;;;2.27;1.70;;;15.60;70.10;16.60;99267.00;;;;5058085;28;20186;-50
2023/12/31 05:41:08;;;;;;;1.70;1.60;;;15.60;70.00;16.60;99251.00;;;;5070174;28;20248;-50
2023/12/31 05:43:34;;;;;;;1.80;1.70;;;15.60;70.00;16.60;99258.00;;;;5069930;28;20219;-50
2023/12/31 05:46:00;;;;;;;1.50;1.40;;;15.60;70.00;16.60;99249.00;;;;5069766;28;20618;-49
2023/12/31 05:48:26;;;;;;;2.40;1.60;;;15.60;70.00;16.60;99244.00;;;;5067705;28;20231;-50
2023/12/31 05:50:52;;;;;;;3.43;1.73;;;15.60;70.00;16.60;99241.00;;;;5069744;28;20197;-49
2023/12/31 05:53:18;;;;;;;1.60;1.50;;;15.60;70.00;16.60;99239.00;;;;5069888;28;20242;-50
2023/12/31 05:55:44;;;;;;;2.03;1.60;;;15.60;70.00;16.60;99224.00;;;;5065426;28;20181;-50
2023/12/31 05:58:09;;;;;;;2.97;1.77;;;15.60;70.00;16.60;99232.00;;;;5068361;28;20268;-51
2023/12/31 06:00:35;;;;;;;2.03;1.60;;;15.60;70.80;16.60;99231.00;;;;5068737;28;20174;-50
2023/12/31 06:03:01;;;;;;;2.87;1.60;;;15.60;70.00;16.60;99217.00;;;;5068721;28;20207;-50
2023/12/31 06:05:27;;;;;;;4.10;1.80;;;15.60;70.10;16.60;99209.00;;;;5066990;28;20410;-49
2023/12/31 06:07:52;;;;;;;3.57;1.80;;;15.60;70.10;16.50;99213.00;;;;5069111;28;20173;-51
2023/12/31 06:10:18;;;;;;;1.80;1.70;;;15.50;70.00;16.60;99210.00;;;;5074758;28;20192;-50
2023/12/31 06:12:44;;;;;;;4.67;1.70;;;15.50;70.00;16.60;99219.00;;;;5068947;28;20220;-50
2023/12/31 06:15:11;;;;;;;2.87;1.80;;;15.50;70.00;16.50;99210.00;;;;5068824;28;20182;-52
2023/12/31 06:17:37;;;;;;;3.60;1.90;;;15.50;70.00;16.50;99204.00;;;;5069246;28;20193;-51
2023/12/31 06:20:04;;;;;;;1.93;1.80;;;15.50;70.00;16.50;99212.00;;;;5068605;28;20173;-50
2023/12/31 06:22:30;;;;;;;3.23;1.90;;;15.50;69.90;16.50;99209.00;;;;5045433;28;20188;-50
2023/12/31 06:24:56;;;;;;;1.90;1.80;;;15.40;69.80;16.50;99205.00;;;;5063911;28;20180;-51
2023/12/31 06:27:22;;;;;;;1.90;1.77;;;15.40;69.80;16.50;99205.00;;;;5061853;28;20256;-50
2023/12/31 06:29:50;;;;;;;1.80;1.70;;;15.50;69.90;16.50;99195.00;;;;5077081;28;20186;-50
2023/12/31 06:32:16;;;;;;;1.93;1.70;;;15.40;69.60;16.50;99200.00;;;;5066927;28;20209;-51
2023/12/31 06:34:42;;;;;;;1.93;1.70;;;15.50;69.70;16.50;99191.00;;;;5068845;28;20174;-51
2023/12/31 06:37:08;;;;;;;2.10;1.90;;;15.40;69.40;16.50;99189.00;;;;5068972;28;20205;-50
2023/12/31 06:39:33;;;;;;;2.37;1.90;;;15.40;69.40;16.50;99196.00;;;;5068724;28;20205;-50
2023/12/31 06:41:59;;;;;;;1.90;1.80;;;15.40;69.30;16.50;99183.00;;;;5079963;28;20208;-50
2023/12/31 06:44:25;;;;;;;1.70;1.60;;;15.40;69.30;16.40;99173.00;;;;5073484;28;20170;-50
2023/12/31 06:46:51;;;;;;;1.87;1.70;;;15.40;69.20;16.40;99176.00;;;;5068556;28;20197;-49
2023/12/31 06:49:17;;;;;;;2.27;2.00;;;15.40;69.20;16.40;99185.00;;;;5068474;28;20190;-49
2023/12/31 06:51:43;;;;;;;1.87;1.77;;;15.40;69.20;16.40;99179.00;;;;5068493;28;20731;-49
2023/12/31 06:54:08;;;;;;;2.00;1.77;;;15.40;69.20;16.40;99171.00;;;;5068396;28;20182;-50
2023/12/31 06:56:34;;;;;;;1.80;1.70;;;15.40;69.00;16.40;99175.00;;;;5068484;28;20176;-50
2023/12/31 06:59:00;;;;;;;2.03;1.80;;;15.40;69.00;16.40;99176.00;;;;5068047;28;20204;-49
2023/12/31 07:01:26;;;;;;;1.77;1.67;;;15.30;68.80;16.40;99166.00;;;;5068285;28;20288;-49
2023/12/31 07:03:51;;;;;;;1.70;1.60;;;15.40;68.90;16.40;99181.00;;;;5062013;28;20558;-50
2023/12/31 07:06:17;;;;;;;1.83;1.73;;;15.30;68.70;16.40;99177.00;;;;5069504;28;20186;-57
2023/12/31 07:08:43;;;;;;;1.70;1.60;;;15.30;68.80;16.40;99172.00;;;;5072294;28;20227;-50
2023/12/31 07:11:09;;;;;;;1.70;1.60;;;15.30;68.80;16.40;99160.00;;;;5071297;28;20282;-50
2023/12/31 07:13:36;;;;;;;1.60;1.50;;;15.30;68.60;16.40;99147.00;;;;5054094;28;20177;-50
2023/12/31 07:16:02;;;;;;;2.00;1.80;;;15.30;68.70;16.40;99158.00;;;;5073835;28;20292;-50
2023/12/31 07:18:28;;;;;;;1.70;1.60;;;15.30;68.50;16.30;99156.00;;;;5076116;28;20204;-50
2023/12/31 07:20:55;;;;;;;2.07;1.97;;;15.30;68.40;16.30;99138.00;;;;5071954;28;20205;-50
2023/12/31 07:23:21;;;;;;;1.90;1.80;;;15.30;68.40;16.30;99134.00;;;;5051533;28;20264;-50
2023/12/31 07:25:47;;;;;;;1.77;1.67;;;15.30;68.50;16.30;99127.00;;;;5066696;28;20347;-50
2023/12/31 07:28:13;;;;;;;1.80;1.70;;;15.30;68.50;16.30;99133.00;;;;5049643;28;20185;-50
2023/12/31 07:30:43;;;;;;;1.90;1.80;;;15.30;68.40;16.30;99127.00;;;;5071040;28;20173;-50
2023/12/31 07:33:09;;;;;;;1.70;1.60;;;15.20;68.20;16.30;99119.00;;;;5071705;28;20216;-51
2023/12/31 07:35:36;;;;;;;1.80;1.70;;;15.30;68.40;16.30;99123.00;;;;5072044;28;20212;-49
2023/12/31 07:38:07;;;;;;;1.80;1.70;;;15.20;68.20;16.30;99138.00;;;;5049648;28;20205;-51
2023/12/31 07:40:33;;;;;;;1.63;1.53;;;15.30;68.20;16.30;99104.00;;;;5070170;28;20177;-50
2023/12/31 07:42:59;;;;;;;1.90;1.80;;;15.30;68.20;16.30;99125.00;;;;5070988;28;20188;-50
2023/12/31 07:45:25;;;;;;;1.80;1.70;;;15.20;68.10;16.30;99120.00;;;;5071725;28;20189;-50
2023/12/31 07:47:53;;;;;;;1.77;1.67;;;15.20;68.00;16.30;99112.00;;;;5071687;28;20224;-50
2023/12/31 07:50:19;;;;;;;1.80;1.70;;;15.20;67.80;16.30;99112.00;;;;5071427;28;20178;-49
2023/12/31 07:52:45;;;;;;;1.70;1.60;;;15.20;67.80;16.30;99104.00;;;;5048987;28;20206;-50
2023/12/31 07:55:10;;;;;;;1.80;1.70;;;15.20;67.80;16.20;99104.00;;;;5071627;28;20194;-50
2023/12/31 07:57:37;;;;;;;1.93;1.80;;;15.20;67.80;16.20;99102.00;;;;5071425;28;20685;-50
2023/12/31 08:00:07;;;;;;;2.10;1.90;;;15.20;67.80;16.20;99106.00;;;;5071047;28;20216;-50
2023/12/31 08:02:32;;;;;;;1.87;1.77;;;15.20;67.80;16.20;99089.00;;;;5083720;28;20217;-50
2023/12/31 08:04:58;;;;;;;2.00;1.90;;;15.20;67.90;16.20;99070.00;;;;5072026;28;20232;-50
2023/12/31 08:07:24;;;;;;;1.80;1.70;;;15.20;67.80;16.20;99087.00;;;;5072450;28;20234;-50
2023/12/31 08:09:50;;;;;;;1.70;1.60;;;15.10;67.70;16.20;99079.00;;;;5072381;28;20279;-50
2023/12/31 08:12:15;;;;;;;1.63;1.53;;;15.20;67.80;16.20;99079.00;;;;5071095;28;20206;-51
2023/12/31 08:14:41;;;;;;;1.80;1.70;;;15.10;67.70;16.20;99072.00;;;;5077785;28;20185;-50
2023/12/31 08:17:07;;;;;;;1.80;1.70;;;15.10;67.70;16.20;99086.00;;;;5062065;28;20201;-49
2023/12/31 08:19:33;;;;;;;1.80;1.67;;;15.10;67.70;16.20;99078.00;;;;5065541;28;20177;-50
2023/12/31 08:21:59;;;;;;;1.90;1.80;;;15.10;67.60;16.20;99083.00;;;;5077939;28;20257;-50
2023/12/31 08:24:25;;;;;;;1.80;1.70;;;15.10;67.80;16.10;99081.00;;;;5072540;28;20178;-49
2023/12/31 08:26:51;;;;;;;2.00;1.90;;;15.10;67.90;16.20;99072.00;;;;5069230;28;20189;-50
2023/12/31 08:29:17;;;;;;;1.90;1.80;;;15.10;68.00;16.20;99079.00;;;;5068304;28;20177;-51
2023/12/31 08:31:49;;;;;;;2.13;2.00;;;15.10;68.00;16.20;99080.00;;;;5068816;28;20567;-51
2023/12/31 08:34:15;;;;;;;2.23;1.80;;;15.10;67.90;16.10;99087.00;;;;5055568;28;20181;-50
2023/12/31 08:36:41;;;;;;;2.40;1.90;;;15.10;67.90;16.10;99094.00;;;;5052342;28;20637;-51
2023/12/31 08:39:06;;;;;;;2.83;2.10;;;15.20;68.20;16.10;99077.00;;;;5063391;28;20178;-49
2023/12/31 08:41:32;;;;;;;2.73;2.10;;;15.20;68.50;16.10;99077.00;;;;5070226;28;20189;-50
2023/12/31 08:43:58;;;;;;;3.47;2.00;;;15.20;68.50;16.10;99088.00;;;;5069856;28;20231;-50
2023/12/31 08:46:24;;;;;;;2.27;2.00;;;15.30;68.50;16.20;99088.00;;;;5069814;28;20620;-50
2023/12/31 08:48:49;;;;;;;2.20;2.00;;;15.40;68.60;16.20;99091.00;;;;5069260;28;20264;-50
2023/12/31 08:51:15;;;;;;;2.20;2.00;;;15.40;68.40;16.30;99092.00;;;;5070073;28;20207;-51
2023/12/31 08:53:42;;;;;;;2.50;2.10;;;15.50;68.40;16.30;99085.00;;;;5069234;28;20677;-50
2023/12/31 08:56:08;;;;;;;2.20;2.00;;;15.60;68.30;16.40;99093.00;;;;5069575;28;20707;-50
2023/12/31 08:58:33;;;;;;;1.97;1.80;;;15.70;68.20;16.50;99097.00;;;;5069469;28;20202;-50
2023/12/31 09:00:59;;;;;;;1.90;1.80;;;15.90;68.20;16.50;99074.00;;;;5063834;28;20209;-50
2023/12/31 09:03:25;;;;;;;3.80;1.90;;;16.00;68.10;16.60;99070.00;;;;5069511;28;20181;-51
2023/12/31 09:05:51;;;;;;;2.40;2.00;;;16.10;67.90;16.80;99072.00;;;;5070479;28;20185;-50
2023/12/31 09:08:16;;;;;;;3.53;1.90;;;16.20;67.80;16.80;99065.00;;;;5069165;28;20227;-47
2023/12/31 09:10:42;;;;;;;1.90;1.77;;;16.40;67.90;16.90;99060.00;;;;5069572;28;20178;-49
2023/12/31 09:13:08;;;;;;;2.43;1.67;;;16.50;67.90;17.10;99078.00;;;;5063388;28;20189;-47
2023/12/31 09:15:35;;;;;;;7.70;2.03;;;16.60;68.00;17.10;99060.00;;;;5070213;28;20291;-49
2023/12/31 09:18:01;;;;;;;5.00;2.00;;;16.70;68.20;17.20;99058.00;;;;5062851;28;20280;-49
2023/12/31 09:20:27;;;;;;;3.40;1.90;;;16.80;68.10;17.40;99055.00;;;;5068387;28;20184;-49
2023/12/31 09:22:53;;;;;;;2.67;1.80;;;17.00;68.10;17.50;99057.00;;;;5068623;28;20194;-48
2023/12/31 09:25:22;;;;;;;3.20;1.80;;;17.10;68.20;17.50;99063.00;;;;5069427;28;20174;-48
2023/12/31 09:27:48;;;;;;;2.97;1.90;;;17.20;68.50;17.70;99055.00;;;;5069336;28;20183;-49
2023/12/31 09:30:14;;;;;;;5.63;1.97;;;17.30;68.50;17.70;99056.00;;;;5044441;28;20210;-49
2023/12/31 09:32:41;;;;;;;4.50;1.90;;;17.30;68.30;17.80;99056.00;;;;5068570;28;20198;-49
2023/12/31 09:35:07;;;;;;;6.80;1.97;;;17.40;68.40;17.90;99059.00;;;;5069023;28;20192;-48
2023/12/31 09:37:34;;;;;;;4.13;1.90;;;17.50;68.30;18.00;99053.00;;;;5072736;28;20223;-48
2023/12/31 09:39:59;;;;;;;4.37;1.90;;;17.50;68.10;18.10;99040.00;;;;5065455;28;20209;-48
2023/12/31 09:42:50;;;;;;;3.17;1.80;;;17.60;68.20;18.10;99068.00;;;;5068691;28;20239;-49
2023/12/31 09:45:23;;;;;;;6.07;1.73;;;17.70;68.00;18.20;99054.00;;;;5068890;28;20185;-49
2023/12/31 09:47:50;;;;;;;4.00;1.80;;;17.70;68.00;18.30;99047.00;;;;5045442;28;20183;-49
2023/12/31 09:50:19;;;;;;;2.30;1.93;;;17.80;68.30;18.30;99031.00;;;;5069007;28;20263;-49
2023/12/31 09:52:49;;;;;;;1.93;1.70;;;17.80;68.20;18.30;99041.00;;;;5045332;28;20618;-50
2023/12/31 09:55:18;;;;;;;4.17;2.00;;;17.80;68.30;18.40;99038.00;;;;5044904;28;20286;-48
2023/12/31 09:57:47;;;;;;;3.70;1.97;;;17.70;68.40;18.40;99040.00;;;;5067810;28;20212;-49
2023/12/31 10:00:13;;;;;;;1.70;1.60;;;17.70;68.70;18.30;99030.00;;;;5044784;28;20236;-48
2023/12/31 10:02:39;;;;;;;3.13;1.77;;;17.70;68.90;18.40;99028.00;;;;5038100;28;20193;-49
2023/12/31 10:05:05;;;;;;;2.93;1.70;;;17.70;69.10;18.40;99026.00;;;;5068894;28;20747;-48
2023/12/31 10:07:31;;;;;;;3.23;2.00;;;17.60;69.40;18.40;99049.00;;;;5059109;28;20185;-49
2023/12/31 10:10:00;;;;;;;3.67;1.87;;;17.60;69.60;18.40;99044.00;;;;5067312;28;20181;-50
2023/12/31 10:12:27;;;;;;;1.90;1.80;;;17.50;69.40;18.40;99052.00;;;;5047575;28;20238;-49
2023/12/31 10:14:53;;;;;;;2.23;1.80;;;17.50;69.70;18.40;99068.00;;;;5065784;28;20195;-48
2023/12/31 10:17:19;;;;;;;1.83;1.73;;;17.50;70.10;18.30;99058.00;;;;5072241;28;20274;-48
2023/12/31 10:19:48;;;;;;;2.03;1.90;;;17.50;70.10;18.30;99057.00;;;;5041837;28;20651;-49
2023/12/31 10:22:14;;;;;;;2.97;1.80;;;17.50;70.50;18.30;99058.00;;;;5066171;28;20721;-49
2023/12/31 10:24:41;;;;;;;1.80;1.70;;;17.50;70.50;18.30;99035.00;;;;5069480;28;20223;-49
2023/12/31 10:27:08;;;;;;;1.90;1.80;;;17.50;70.60;18.30;99025.00;;;;5071892;28;20215;-49
2023/12/31 10:29:34;;;;;;;2.43;1.87;;;17.50;70.80;18.30;99035.00;;;;5080635;28;20193;-50
2023/12/31 10:32:04;;;;;;;2.27;1.80;;;17.40;70.90;18.30;99040.00;;;;5046873;28;20635;-48
2023/12/31 10:34:30;;;;;;;2.17;1.77;;;17.40;70.90;18.30;99057.00;;;;5066714;28;20178;-48
2023/12/31 10:37:05;;;;;;;2.70;1.83;;;17.40;71.00;18.30;99079.00;;;;5068680;28;20692;-50
2023/12/31 10:39:36;;;;;;;3.73;1.77;;;17.40;70.60;18.20;99074.00;;;;5038404;28;20184;-49
2023/12/31 10:42:06;;;;;;;2.00;1.80;;;17.40;70.40;18.30;99085.00;;;;5067248;28;20189;-49
2023/12/31 10:44:34;;;;;;;2.13;1.87;;;17.40;70.20;18.30;99080.00;;;;5068081;28;20175;-49
2023/12/31 10:47:05;;;;;;;1.90;1.80;;;17.40;70.10;18.20;99083.00;;;;5067011;28;20227;-49
2023/12/31 10:49:32;;;;;;;2.20;1.90;;;17.30;70.00;18.20;99079.00;;;;5046668;28;20191;-49
2023/12/31 10:52:04;;;;;;;2.20;2.00;;;17.40;69.70;18.30;99082.00;;;;5067893;28;20208;-49